Southern Utah University
, Cedar City
Last Weather Update:05/18/2012 10:00:00 AM
Date
ETo
ETc
Rain
Irrigation
Req
Temp
Max
Temp
Min
Temp
Avg
Avg RH
Avg Wind
Avg Solar
inches
inches
incehs
inches
F
F
F
%
%
watts/m2
04/01/2012 0.07" 0.00" 0.24" -0.19" 58.4° 30.1° 40.5° 68.8% 8.2 MPH 124.0w/m2
04/02/2012 0.09" 0.00" 0.03" -0.02" 45.5° 21.0° 32.9° 64.8% 6.7 MPH 205.5w/m2
04/03/2012 0.15" 0.01" 0.00" 0.01" 58.6° 25.3° 41.8° 48.5% 2.6 MPH 298.2w/m2
04/04/2012 0.22" 0.02" 0.00" 0.02" 66.0° 38.3° 53.3° 30.2% 7.4 MPH 300.3w/m2
04/05/2012 0.24" 0.03" 0.00" 0.03" 61.4° 47.0° 54.4° 18.8% 14.6 MPH 260.2w/m2
04/06/2012 0.15" 0.02" 0.00" 0.02" 49.9° 29.7° 40.0° 26.0% 4.9 MPH 296.4w/m2
04/07/2012 0.18" 0.03" 0.00" 0.03" 65.0° 25.0° 45.4° 21.6% 3.2 MPH 310.9w/m2
04/08/2012 0.21" 0.04" 0.00" 0.04" 70.3° 36.8° 54.3° 17.8% 4.3 MPH 311.1w/m2
04/09/2012 0.22" 0.05" 0.00" 0.05" 73.0° 40.9° 57.4° 20.3% 4.5 MPH 310.8w/m2
04/10/2012 0.24" 0.06" 0.00" 0.06" 73.5° 40.5° 59.6° 20.2% 6.1 MPH 302.5w/m2
04/11/2012 0.11" 0.03" 0.10" -0.05" 60.2° 39.5° 51.2° 44.7% 14.2 MPH 135.8w/m2
04/12/2012 0.13" 0.04" 0.26" -0.17" 50.3° 33.5° 41.4° 62.3% 6.2 MPH 268.5w/m2
04/13/2012 0.12" 0.04" 0.00" 0.04" 48.0° 36.8° 42.3° 45.4% 8.3 MPH 201.5w/m2
04/14/2012 0.03" 0.01" 0.26" -0.20" 40.1° 28.6° 33.2° 86.8% 3.9 MPH 75.4w/m2
04/15/2012 0.13" 0.04" 0.20" -0.12" 51.6° 30.7° 40.1° 77.3% 1.7 MPH 287.9w/m2
04/16/2012 0.16" 0.06" 0.00" 0.06" 60.8° 32.1° 46.6° 49.7% 2.7 MPH 305.6w/m2
04/17/2012 0.14" 0.06" 0.00" 0.06" 64.4° 36.3° 51.3° 44.7% 2.5 MPH 249.5w/m2
04/18/2012 0.17" 0.07" 0.00" 0.07" 68.0° 39.9° 56.2° 38.8% 3.9 MPH 233.8w/m2
04/19/2012 0.19" 0.08" 0.00" 0.08" 67.9° 44.3° 56.4° 43.5% 3.6 MPH 306.9w/m2
04/20/2012 0.21" 0.10" 0.00" 0.10" 72.4° 38.2° 56.6° 48.5% 4.4 MPH 323.2w/m2
04/21/2012 0.22" 0.11" 0.00" 0.11" 79.5° 44.8° 62.2° 33.4% 3.3 MPH 327.8w/m2
04/22/2012 0.23" 0.12" 0.00" 0.12" 83.7° 48.1° 67.1° 27.3% 3.2 MPH 331.8w/m2
04/23/2012 0.23" 0.12" 0.00" 0.12" 82.8° 53.8° 69.7° 21.5% 4.5 MPH 269.1w/m2
04/24/2012 0.25" 0.14" 0.00" 0.14" 75.2° 48.6° 64.9° 24.4% 5.4 MPH 321.8w/m2
04/25/2012 0.14" 0.08" 0.00" 0.08" 66.1° 47.7° 60.2° 38.9% 6.0 MPH 144.4w/m2
04/26/2012 0.20" 0.12" 0.05" 0.08" 62.6° 50.4° 56.6° 46.0% 10.0 MPH 273.6w/m2
04/27/2012 0.16" 0.10" 0.08" 0.04" 60.8° 40.8° 50.6° 57.7% 3.6 MPH 317.0w/m2
04/28/2012 0.18" 0.12" 0.00" 0.12" 59.9° 34.8° 48.0° 42.8% 5.4 MPH 331.7w/m2
04/29/2012 0.20" 0.13" 0.00" 0.13" 66.5° 35.5° 51.3° 34.9% 3.0 MPH 344.4w/m2
04/30/2012 0.25" 0.17" 0.00" 0.17" 72.6° 42.8° 60.1° 24.7% 5.8 MPH 324.1w/m2
Totals: 5.20" 2.00" 1.22" 1.02" 83.7° 21.0° 51.5° 41.0% 5.5 MPH 269.8w/m2